createdAt,value
2018-12-16T00:00:34.158Z,990.65
2018-12-16T00:01:34.147Z,990.67
2018-12-16T00:02:34.133Z,990.7
2018-12-16T00:03:34.128Z,990.68
2018-12-16T00:04:34.107Z,990.68
2018-12-16T00:05:34.094Z,990.66
2018-12-16T00:06:34.081Z,990.63
2018-12-16T00:07:34.068Z,990.65
2018-12-16T00:08:34.054Z,990.62
2018-12-16T00:09:34.039Z,990.55
2018-12-16T00:10:34.027Z,990.55
2018-12-16T00:11:34.014Z,990.55
2018-12-16T00:12:33.999Z,990.49
2018-12-16T00:13:33.988Z,990.49
2018-12-16T00:14:33.997Z,990.52
2018-12-16T00:15:33.969Z,990.57
2018-12-16T00:16:33.958Z,990.56
2018-12-16T00:17:33.937Z,990.54
2018-12-16T00:18:33.921Z,990.5
2018-12-16T00:19:33.909Z,990.53
2018-12-16T00:20:33.901Z,990.5
2018-12-16T00:21:33.882Z,990.49
2018-12-16T00:22:33.874Z,990.5
2018-12-16T00:23:33.855Z,990.46
2018-12-16T00:24:33.843Z,990.47
2018-12-16T00:25:33.832Z,990.48
2018-12-16T00:26:33.823Z,990.46
2018-12-16T00:27:33.807Z,990.4
2018-12-16T00:28:33.795Z,990.42
2018-12-16T00:29:33.776Z,990.41
2018-12-16T00:30:33.764Z,990.41
2018-12-16T00:31:33.751Z,990.39
2018-12-16T00:32:33.739Z,990.37
2018-12-16T00:33:33.726Z,990.33
2018-12-16T00:34:33.725Z,990.34
2018-12-16T00:35:33.699Z,990.32
2018-12-16T00:36:33.691Z,990.3
2018-12-16T00:37:33.677Z,990.28
2018-12-16T00:38:33.662Z,990.25
2018-12-16T00:39:33.652Z,990.22
2018-12-16T00:40:33.641Z,990.21
2018-12-16T00:41:33.623Z,990.21
2018-12-16T00:42:33.612Z,990.22
2018-12-16T00:43:33.596Z,990.2
2018-12-16T00:44:33.586Z,990.23
2018-12-16T00:45:33.572Z,990.17
2018-12-16T00:46:33.556Z,990.19
2018-12-16T00:47:33.550Z,990.21
2018-12-16T00:48:33.532Z,990.22
2018-12-16T00:49:33.525Z,990.24
2018-12-16T00:50:33.507Z,990.27
2018-12-16T00:51:33.498Z,990.23
2018-12-16T00:52:36.402Z,990.25
2018-12-16T00:53:33.474Z,990.25
2018-12-16T00:54:33.459Z,990.22
2018-12-16T00:55:33.443Z,990.25
2018-12-16T00:56:33.430Z,990.18
2018-12-16T00:57:33.420Z,990.19
2018-12-16T00:58:33.419Z,990.21
2018-12-16T00:59:33.391Z,990.2
2018-12-16T01:00:33.386Z,990.16
2018-12-16T01:01:33.366Z,990.13
2018-12-16T01:02:33.357Z,990.14
2018-12-16T01:03:33.344Z,990.11
2018-12-16T01:04:33.331Z,990.11
2018-12-16T01:05:33.331Z,990.11
2018-12-16T01:06:33.302Z,990.12
2018-12-16T01:07:33.288Z,990.13
2018-12-16T01:08:33.278Z,990.09
2018-12-16T01:09:33.265Z,990.11
2018-12-16T01:10:33.253Z,990.05
2018-12-16T01:11:33.241Z,990.04
2018-12-16T01:12:33.228Z,990.05
2018-12-16T01:13:33.215Z,990.09
2018-12-16T01:14:33.206Z,990.07
2018-12-16T01:15:33.186Z,990.1
2018-12-16T01:16:33.176Z,990.07
2018-12-16T01:17:33.173Z,990.05
2018-12-16T01:18:33.153Z,990.03
2018-12-16T01:19:33.136Z,990.07
2018-12-16T01:20:33.128Z,990.04
2018-12-16T01:21:33.174Z,990.05
2018-12-16T01:22:33.095Z,990.1
2018-12-16T01:23:33.086Z,990.07
2018-12-16T01:24:33.070Z,990.07
2018-12-16T01:25:33.057Z,990.05
2018-12-16T01:26:33.044Z,990
2018-12-16T01:27:33.031Z,990.01
2018-12-16T01:28:33.019Z,990.01
2018-12-16T01:29:33.010Z,989.99
2018-12-16T01:30:33.025Z,989.96
2018-12-16T01:31:32.981Z,989.93
2018-12-16T01:32:32.970Z,989.93
2018-12-16T01:33:32.955Z,989.9
2018-12-16T01:34:32.952Z,989.86
2018-12-16T01:35:32.936Z,989.89
2018-12-16T01:36:32.934Z,989.83
2018-12-16T01:37:32.914Z,989.82
2018-12-16T01:38:32.894Z,989.85
2018-12-16T01:39:32.879Z,989.85
2018-12-16T01:40:32.868Z,989.84
2018-12-16T01:41:32.862Z,989.82
2018-12-16T01:42:32.843Z,989.82
2018-12-16T01:43:32.826Z,989.78
2018-12-16T01:44:32.815Z,989.76
2018-12-16T01:45:32.805Z,989.75
2018-12-16T01:46:32.789Z,989.69
2018-12-16T01:47:32.776Z,989.72
2018-12-16T01:48:32.773Z,989.69
2018-12-16T01:49:32.756Z,989.65
2018-12-16T01:50:32.739Z,989.67
2018-12-16T01:51:32.728Z,989.66
2018-12-16T01:52:32.717Z,989.64
2018-12-16T01:53:32.702Z,989.57
2018-12-16T01:54:32.689Z,989.57
2018-12-16T01:55:32.676Z,989.61
2018-12-16T01:56:32.671Z,989.6
2018-12-16T01:57:32.653Z,989.59
2018-12-16T01:58:32.638Z,989.6
2018-12-16T01:59:32.624Z,989.55
2018-12-16T02:00:32.613Z,989.59
2018-12-16T02:01:32.603Z,989.61
2018-12-16T02:02:32.586Z,989.55
2018-12-16T02:03:32.573Z,989.62
2018-12-16T02:04:32.562Z,989.58
2018-12-16T02:05:32.549Z,989.63
2018-12-16T02:06:32.538Z,989.59
2018-12-16T02:07:32.524Z,989.62
2018-12-16T02:08:32.514Z,989.62
2018-12-16T02:09:32.505Z,989.61
2018-12-16T02:10:32.486Z,989.63
2018-12-16T02:11:32.483Z,989.63
2018-12-16T02:12:32.462Z,989.58
2018-12-16T02:13:32.451Z,989.51
2018-12-16T02:14:32.439Z,989.53
2018-12-16T02:15:32.429Z,989.48
2018-12-16T02:16:32.413Z,989.37
2018-12-16T02:17:32.402Z,989.38
2018-12-16T02:18:32.409Z,989.4
2018-12-16T02:19:32.374Z,989.38
2018-12-16T02:20:32.361Z,989.33
2018-12-16T02:21:32.353Z,989.36
2018-12-16T02:22:32.334Z,989.36
2018-12-16T02:23:32.325Z,989.33
2018-12-16T02:24:32.311Z,989.31
2018-12-16T02:25:32.301Z,989.33
2018-12-16T02:26:32.287Z,989.33
2018-12-16T02:27:32.272Z,989.29
2018-12-16T02:28:32.261Z,989.31
2018-12-16T02:29:32.246Z,989.27
2018-12-16T02:30:32.283Z,989.22
2018-12-16T02:31:32.271Z,989.23
2018-12-16T02:32:32.208Z,989.21
2018-12-16T02:33:32.196Z,989.18
2018-12-16T02:34:32.186Z,989.2
2018-12-16T02:35:32.174Z,989.18
2018-12-16T02:36:32.161Z,989.18
2018-12-16T02:37:32.149Z,989.15
2018-12-16T02:38:32.135Z,989.09
2018-12-16T02:39:32.134Z,989.1
2018-12-16T02:40:32.124Z,989.08
2018-12-16T02:41:32.096Z,989.04
2018-12-16T02:42:32.086Z,989.03
2018-12-16T02:43:32.077Z,989.01
2018-12-16T02:44:33.484Z,988.99
2018-12-16T02:45:32.047Z,988.97
2018-12-16T02:46:32.037Z,989
2018-12-16T02:47:32.020Z,988.95
2018-12-16T02:48:32.013Z,988.93
2018-12-16T02:49:31.997Z,988.91
2018-12-16T02:50:31.987Z,988.92
2018-12-16T02:51:31.971Z,988.87
2018-12-16T02:52:31.970Z,988.84
2018-12-16T02:53:31.954Z,988.86
2018-12-16T02:54:31.940Z,988.84
2018-12-16T02:55:31.925Z,988.86
2018-12-16T02:56:31.917Z,988.85
2018-12-16T02:57:31.907Z,988.86
2018-12-16T02:58:31.895Z,988.84
2018-12-16T02:59:31.875Z,988.88
2018-12-16T03:00:31.864Z,988.82
2018-12-16T03:01:31.855Z,988.84
2018-12-16T03:02:31.839Z,988.84
2018-12-16T03:03:31.826Z,988.83
2018-12-16T03:04:31.810Z,988.81
2018-12-16T03:05:31.801Z,988.8
2018-12-16T03:06:31.789Z,988.86
2018-12-16T03:07:31.773Z,988.81
2018-12-16T03:08:31.768Z,988.84
2018-12-16T03:09:31.763Z,988.84
2018-12-16T03:10:31.737Z,988.8
2018-12-16T03:11:31.723Z,988.81
2018-12-16T03:12:31.715Z,988.82
2018-12-16T03:13:31.702Z,988.78
2018-12-16T03:14:31.702Z,988.73
2018-12-16T03:15:31.675Z,988.69
2018-12-16T03:16:31.663Z,988.72
2018-12-16T03:17:31.651Z,988.68
2018-12-16T03:18:31.637Z,988.64
2018-12-16T03:21:02.397Z,988.58
2018-12-16T03:22:02.376Z,988.55
2018-12-16T03:23:02.367Z,988.54
2018-12-16T03:24:02.358Z,988.58
2018-12-16T03:25:02.349Z,988.52
2018-12-16T03:26:02.339Z,988.47
2018-12-16T03:27:02.327Z,988.43
2018-12-16T03:28:02.311Z,988.45
2018-12-16T03:29:02.296Z,988.34
2018-12-16T03:30:02.283Z,988.39
2018-12-16T03:31:02.279Z,988.33
2018-12-16T03:32:02.280Z,988.28
2018-12-16T03:33:02.244Z,988.29
2018-12-16T03:34:02.303Z,988.22
2018-12-16T03:35:02.229Z,988.14
2018-12-16T03:36:09.805Z,988.1
2018-12-16T03:37:02.203Z,988.12
2018-12-16T03:38:02.182Z,988.03
2018-12-16T03:39:02.169Z,988.05
2018-12-16T03:40:07.950Z,988.04
2018-12-16T03:41:02.154Z,987.99
2018-12-16T03:42:02.134Z,987.99
2018-12-16T03:43:02.135Z,987.95
2018-12-16T03:44:02.107Z,987.84
2018-12-16T03:45:02.121Z,987.89
2018-12-16T03:46:02.088Z,987.83
2018-12-16T03:47:02.091Z,987.82
2018-12-16T03:48:02.123Z,987.78
2018-12-16T03:49:02.070Z,987.8
2018-12-16T03:50:02.037Z,987.74
2018-12-16T03:51:02.043Z,987.73
2018-12-16T03:52:02.010Z,987.73
2018-12-16T03:53:02.008Z,987.7
2018-12-16T03:54:01.986Z,987.71
2018-12-16T03:55:01.975Z,987.73
2018-12-16T03:56:01.965Z,987.68
2018-12-16T03:57:01.960Z,987.67
2018-12-16T03:58:02.041Z,987.65
2018-12-16T03:59:01.931Z,987.65
2018-12-16T04:00:01.917Z,987.63
2018-12-16T04:01:01.901Z,987.61
2018-12-16T04:02:01.896Z,987.5
2018-12-16T04:03:01.874Z,987.49
2018-12-16T04:04:01.933Z,987.49
2018-12-16T04:05:01.852Z,987.47
2018-12-16T04:06:01.835Z,987.44
2018-12-16T04:07:01.903Z,987.47
2018-12-16T04:08:01.829Z,987.4
2018-12-16T04:09:01.800Z,987.39
2018-12-16T04:10:01.796Z,987.4
2018-12-16T04:11:01.782Z,987.36
2018-12-16T04:12:01.764Z,987.35
2018-12-16T04:13:01.765Z,987.38
2018-12-16T04:14:01.735Z,987.32
2018-12-16T04:15:01.733Z,987.29
2018-12-16T04:16:01.725Z,987.27
2018-12-16T04:17:01.699Z,987.22
2018-12-16T04:18:01.725Z,987.23
2018-12-16T04:19:01.675Z,987.22
2018-12-16T04:20:01.669Z,987.23
2018-12-16T04:21:01.663Z,987.24
2018-12-16T04:22:01.653Z,987.19
2018-12-16T04:23:01.645Z,987.16
2018-12-16T04:24:01.616Z,987.1
2018-12-16T04:25:01.608Z,987.17
2018-12-16T04:26:01.621Z,987.11
2018-12-16T04:27:01.576Z,987.1
2018-12-16T04:28:01.568Z,987.09
2018-12-16T04:29:01.581Z,987.06
2018-12-16T04:30:01.538Z,987.08
2018-12-16T04:31:01.540Z,987.11
2018-12-16T04:32:01.537Z,987.06
2018-12-16T04:33:01.499Z,987.01
2018-12-16T04:34:01.511Z,987.05
2018-12-16T04:35:01.510Z,987.01
2018-12-16T04:36:01.477Z,987.04
2018-12-16T04:37:01.460Z,987.02
2018-12-16T04:38:01.441Z,987.02
2018-12-16T04:39:01.444Z,987.09
2018-12-16T04:40:01.435Z,987.1
2018-12-16T04:41:01.415Z,987.13
2018-12-16T04:42:01.392Z,987.13
2018-12-16T04:43:01.388Z,987.18
2018-12-16T04:44:01.372Z,987.17
2018-12-16T04:45:01.360Z,987.17
2018-12-16T04:46:01.354Z,987.18
2018-12-16T04:47:01.327Z,987.19
2018-12-16T04:48:01.334Z,987.2
2018-12-16T04:49:01.333Z,987.17
2018-12-16T04:50:01.306Z,987.15
2018-12-16T04:51:01.282Z,987.08
2018-12-16T04:52:01.269Z,987.09
2018-12-16T04:53:01.277Z,987.03
2018-12-16T04:54:01.239Z,987.07
2018-12-16T04:55:01.232Z,987.02
2018-12-16T04:56:01.211Z,987
2018-12-16T04:57:01.210Z,986.93
2018-12-16T04:58:01.189Z,986.95
2018-12-16T04:59:01.165Z,986.9
2018-12-16T05:00:01.152Z,986.9
2018-12-16T05:01:01.165Z,986.83
2018-12-16T05:02:01.130Z,986.78
2018-12-16T05:03:01.116Z,986.79
2018-12-16T05:04:01.110Z,986.84
2018-12-16T05:05:01.095Z,986.78
2018-12-16T05:06:01.088Z,986.84
2018-12-16T05:07:01.221Z,986.85
2018-12-16T05:08:01.050Z,986.83
2018-12-16T05:09:01.784Z,986.88
2018-12-16T05:10:01.022Z,986.87
2018-12-16T05:11:01.143Z,986.84
2018-12-16T05:12:01.000Z,986.85
2018-12-16T05:13:00.986Z,986.8
2018-12-16T05:14:00.970Z,986.8
2018-12-16T05:15:00.957Z,986.76
2018-12-16T05:16:00.946Z,986.84
2018-12-16T05:17:00.981Z,986.86
2018-12-16T05:18:00.918Z,986.85
2018-12-16T05:19:00.905Z,986.85
2018-12-16T05:20:00.892Z,986.89
2018-12-16T05:21:00.880Z,986.86
2018-12-16T05:22:02.516Z,986.77
2018-12-16T05:23:00.859Z,986.7
2018-12-16T05:24:00.838Z,986.69
2018-12-16T05:25:00.824Z,986.72
2018-12-16T05:26:00.817Z,986.71
2018-12-16T05:27:00.806Z,986.7
2018-12-16T05:28:00.784Z,986.72
2018-12-16T05:29:00.770Z,986.74
2018-12-16T05:30:00.756Z,986.75
2018-12-16T05:31:00.770Z,986.79
2018-12-16T05:32:00.729Z,986.77
2018-12-16T05:33:00.714Z,986.82
2018-12-16T05:34:01.321Z,986.75
2018-12-16T05:35:00.697Z,986.8
2018-12-16T05:36:00.675Z,986.8
2018-12-16T05:37:00.677Z,986.82
2018-12-16T05:38:00.647Z,986.76
2018-12-16T05:39:00.645Z,986.75
2018-12-16T05:40:00.620Z,986.78
2018-12-16T05:41:00.607Z,986.75
2018-12-16T05:42:00.597Z,986.77
2018-12-16T05:43:00.587Z,986.81
2018-12-16T05:44:00.565Z,986.8
2018-12-16T05:45:00.566Z,986.77
2018-12-16T05:46:00.541Z,986.76
2018-12-16T05:47:00.526Z,986.79
2018-12-16T05:48:00.512Z,986.79
2018-12-16T05:49:00.497Z,986.79
2018-12-16T05:50:00.490Z,986.73
2018-12-16T05:51:00.469Z,986.7
2018-12-16T05:52:00.458Z,986.7
2018-12-16T05:53:00.445Z,986.75
2018-12-16T05:54:00.432Z,986.76
2018-12-16T05:55:00.442Z,986.78
2018-12-16T05:56:00.403Z,986.77
2018-12-16T05:57:00.392Z,986.82
2018-12-16T05:58:00.379Z,986.83
2018-12-16T05:59:00.366Z,986.83
2018-12-16T06:00:00.353Z,986.81
2018-12-16T06:01:00.344Z,986.76
2018-12-16T06:02:00.327Z,986.77
2018-12-16T06:03:00.314Z,986.74
2018-12-16T06:04:00.303Z,986.77
2018-12-16T06:05:00.288Z,986.71
2018-12-16T06:06:00.276Z,986.75
2018-12-16T06:07:00.264Z,986.75
2018-12-16T06:08:00.815Z,986.72
2018-12-16T06:09:00.239Z,986.75
2018-12-16T06:10:00.221Z,986.76
2018-12-16T06:11:00.208Z,986.68
2018-12-16T06:12:00.197Z,986.71
2018-12-16T06:13:00.184Z,986.77
2018-12-16T06:14:00.169Z,986.77
2018-12-16T06:15:00.156Z,986.77
2018-12-16T06:16:00.145Z,986.78
2018-12-16T06:17:00.134Z,986.74
2018-12-16T06:18:00.116Z,986.73
2018-12-16T06:19:00.103Z,986.74
2018-12-16T06:20:00.094Z,986.72
2018-12-16T06:21:00.077Z,986.7
2018-12-16T06:22:00.066Z,986.74
2018-12-16T06:23:00.054Z,986.72
2018-12-16T06:24:00.040Z,986.78
2018-12-16T06:25:00.026Z,986.73
2018-12-16T06:26:00.015Z,986.74
2018-12-16T06:27:00.000Z,986.76
2018-12-16T06:27:59.988Z,986.78
2018-12-16T06:28:59.981Z,986.78
2018-12-16T06:29:59.970Z,986.74
2018-12-16T06:30:59.946Z,986.77
2018-12-16T06:31:59.942Z,986.8
2018-12-16T06:32:59.927Z,986.78
2018-12-16T06:33:59.916Z,986.74
2018-12-16T06:34:59.902Z,986.73
2018-12-16T06:35:59.900Z,986.74
2018-12-16T06:36:59.886Z,986.7
2018-12-16T06:37:59.863Z,986.66
2018-12-16T06:38:59.849Z,986.69
2018-12-16T06:39:59.843Z,986.72
2018-12-16T06:40:59.827Z,986.67
2018-12-16T06:41:59.818Z,986.72
2018-12-16T06:42:59.798Z,986.7
2018-12-16T06:43:59.793Z,986.64
2018-12-16T06:44:59.777Z,986.57
2018-12-16T06:45:59.763Z,986.56
2018-12-16T06:46:59.751Z,986.58
2018-12-16T06:47:59.739Z,986.56
2018-12-16T06:48:59.725Z,986.53
2018-12-16T06:49:59.711Z,986.52
2018-12-16T06:50:59.699Z,986.52
2018-12-16T06:51:59.693Z,986.51
2018-12-16T06:52:59.675Z,986.55
2018-12-16T06:54:02.508Z,986.5
2018-12-16T06:54:59.650Z,986.5
2018-12-16T06:55:59.637Z,986.46
2018-12-16T06:56:59.624Z,986.44
2018-12-16T06:57:59.610Z,986.43
2018-12-16T06:58:59.601Z,986.46
2018-12-16T06:59:59.589Z,986.44
2018-12-16T07:00:59.571Z,986.4
2018-12-16T07:01:59.563Z,986.37
2018-12-16T07:02:59.597Z,986.35
2018-12-16T07:03:59.534Z,986.37
2018-12-16T07:04:59.531Z,986.32
2018-12-16T07:05:59.511Z,986.34
2018-12-16T07:06:59.497Z,986.28
2018-12-16T07:07:59.535Z,986.27
2018-12-16T07:08:59.473Z,986.24
2018-12-16T07:09:59.467Z,986.28
2018-12-16T07:10:59.465Z,986.43
2018-12-16T07:11:59.459Z,986.47
2018-12-16T07:12:59.474Z,986.49
2018-12-16T07:13:59.411Z,986.49
2018-12-16T07:14:59.398Z,986.5
2018-12-16T07:15:59.389Z,986.47
2018-12-16T07:16:59.393Z,986.46
2018-12-16T07:17:59.362Z,986.43
2018-12-16T07:18:59.392Z,986.46
2018-12-16T07:19:59.337Z,986.49
2018-12-16T07:20:59.326Z,986.56
2018-12-16T07:21:59.314Z,986.58
2018-12-16T07:22:59.349Z,986.55
2018-12-16T07:23:59.287Z,986.58
2018-12-16T07:24:59.285Z,986.57
2018-12-16T07:25:59.262Z,986.56
2018-12-16T07:26:59.251Z,986.62
2018-12-16T07:27:59.287Z,986.63
2018-12-16T07:28:59.226Z,986.6
2018-12-16T07:29:59.223Z,986.54
2018-12-16T07:30:59.223Z,986.48
2018-12-16T07:31:59.194Z,986.44
2018-12-16T07:32:59.228Z,986.45
2018-12-16T07:33:59.168Z,986.51
2018-12-16T07:34:59.155Z,986.56
2018-12-16T07:35:59.149Z,986.56
2018-12-16T07:36:59.130Z,986.58
2018-12-16T07:37:59.170Z,986.61
2018-12-16T07:38:59.107Z,986.64
2018-12-16T07:39:59.109Z,986.63
2018-12-16T07:40:59.098Z,986.62
2018-12-16T07:41:59.071Z,986.7
2018-12-16T07:42:59.073Z,986.72
2018-12-16T07:43:59.074Z,986.78
2018-12-16T07:44:59.046Z,986.77
2018-12-16T07:45:59.024Z,986.75
2018-12-16T07:46:59.011Z,986.76
2018-12-16T07:47:59.048Z,986.76
2018-12-16T07:48:59.008Z,986.75
2018-12-16T07:49:58.973Z,986.73
2018-12-16T07:50:58.967Z,986.76
2018-12-16T07:51:58.948Z,986.73
2018-12-16T07:52:58.995Z,986.78
2018-12-16T07:53:58.926Z,986.83
2018-12-16T07:54:58.920Z,986.9
2018-12-16T07:55:58.907Z,986.86
2018-12-16T07:56:58.935Z,986.87
2018-12-16T07:57:58.939Z,986.88
2018-12-16T07:58:58.862Z,986.92
2018-12-16T07:59:58.851Z,986.93
2018-12-16T08:00:58.839Z,986.98
2018-12-16T08:01:58.839Z,986.93
2018-12-16T08:02:58.815Z,986.91
2018-12-16T08:03:58.807Z,986.92
2018-12-16T08:04:58.790Z,986.93
2018-12-16T08:05:58.790Z,986.95
2018-12-16T08:06:58.771Z,986.95
2018-12-16T08:07:58.764Z,986.98
2018-12-16T08:08:58.742Z,986.91
2018-12-16T08:09:58.730Z,986.96
2018-12-16T08:10:58.721Z,986.93
2018-12-16T08:11:58.718Z,986.94
2018-12-16T08:12:58.697Z,986.95
2018-12-16T08:13:58.684Z,986.89
2018-12-16T08:14:58.671Z,986.94
2018-12-16T08:15:58.662Z,986.93
2018-12-16T08:16:58.648Z,986.99
2018-12-16T08:17:58.638Z,986.95
2018-12-16T08:18:58.625Z,986.93
2018-12-16T08:19:58.612Z,986.97
2018-12-16T08:20:58.599Z,986.95
2018-12-16T08:21:58.587Z,986.93
2018-12-16T08:22:58.575Z,986.95
2018-12-16T08:23:58.565Z,986.95
2018-12-16T08:24:58.552Z,986.95
2018-12-16T08:25:58.552Z,986.93
2018-12-16T08:26:58.531Z,986.93
2018-12-16T08:27:58.518Z,986.87
2018-12-16T08:28:58.505Z,986.92
2018-12-16T08:29:58.493Z,986.95
2018-12-16T08:30:58.483Z,986.99
2018-12-16T08:31:58.478Z,986.96
2018-12-16T08:32:58.460Z,987
2018-12-16T08:33:58.448Z,987.06
2018-12-16T08:34:58.441Z,987.09
2018-12-16T08:35:58.424Z,987.11
2018-12-16T08:36:58.432Z,987.06
2018-12-16T08:37:58.402Z,987.07
2018-12-16T08:38:58.396Z,987.04
2018-12-16T08:39:58.389Z,987.09
2018-12-16T08:40:58.370Z,987.04
2018-12-16T08:41:58.361Z,987.06
2018-12-16T08:42:58.341Z,987.06
2018-12-16T08:43:58.332Z,987.13
2018-12-16T08:44:58.326Z,987.14
2018-12-16T08:45:58.323Z,987.09
2018-12-16T08:46:58.307Z,987.14
2018-12-16T08:47:58.292Z,987.1
2018-12-16T08:48:58.280Z,987.15
2018-12-16T08:49:58.266Z,987.16
2018-12-16T08:50:58.269Z,987.14
2018-12-16T08:51:58.303Z,987.13
2018-12-16T08:52:58.321Z,987.15
2018-12-16T08:53:58.219Z,987.13
2018-12-16T08:54:58.208Z,987.19
2018-12-16T08:55:58.207Z,987.15
2018-12-16T08:56:58.186Z,987.16
2018-12-16T08:57:58.170Z,987.16
2018-12-16T08:58:58.160Z,987.13
2018-12-16T08:59:58.150Z,987.1
2018-12-16T09:00:58.137Z,987.13
2018-12-16T09:01:58.133Z,987.11
2018-12-16T09:02:58.122Z,987.14
2018-12-16T09:03:58.106Z,987.11
2018-12-16T09:04:58.091Z,987.15
2018-12-16T09:05:58.082Z,987.15
2018-12-16T09:06:58.071Z,987.17
2018-12-16T09:07:58.960Z,987.17
2018-12-16T09:08:58.051Z,987.26
2018-12-16T09:09:58.041Z,987.22
2018-12-16T09:10:58.027Z,987.23
2018-12-16T09:11:58.028Z,987.15
2018-12-16T09:12:58.008Z,987.14
2018-12-16T09:13:58.044Z,987.18
2018-12-16T09:14:57.987Z,987.17
2018-12-16T09:15:57.975Z,987.15
2018-12-16T09:16:57.966Z,987.15
2018-12-16T09:17:57.960Z,987.18
2018-12-16T09:18:57.943Z,987.11
2018-12-16T09:19:57.934Z,987.09
2018-12-16T09:20:57.921Z,987.08
2018-12-16T09:21:57.913Z,987.08
2018-12-16T09:22:57.903Z,987.12
2018-12-16T09:23:57.941Z,987.2
2018-12-16T09:24:57.901Z,987.16
2018-12-16T09:25:57.871Z,987.15
2018-12-16T09:26:57.859Z,987.16
2018-12-16T09:27:57.853Z,987.2
2018-12-16T09:28:57.840Z,987.21
2018-12-16T09:29:57.838Z,987.26
2018-12-16T09:30:58.253Z,987.19
2018-12-16T09:31:57.811Z,987.19
2018-12-16T09:32:57.804Z,987.18
2018-12-16T09:33:57.799Z,987.21
2018-12-16T09:34:57.779Z,987.25
2018-12-16T09:35:57.779Z,987.24
2018-12-16T09:36:57.760Z,987.33
2018-12-16T09:37:57.751Z,987.33
2018-12-16T09:38:57.745Z,987.29
2018-12-16T09:39:57.736Z,987.32
2018-12-16T09:40:57.726Z,987.31
2018-12-16T09:41:57.722Z,987.33
2018-12-16T09:42:57.698Z,987.35
2018-12-16T09:43:57.693Z,987.36
2018-12-16T09:44:57.682Z,987.38
2018-12-16T09:45:57.668Z,987.36
2018-12-16T09:46:57.660Z,987.32
2018-12-16T09:47:57.652Z,987.33
2018-12-16T09:48:57.641Z,987.3
2018-12-16T09:49:57.647Z,987.26
2018-12-16T09:50:57.627Z,987.23
2018-12-16T09:51:57.609Z,987.16
2018-12-16T09:52:57.621Z,987.22
2018-12-16T09:53:57.589Z,987.21
2018-12-16T09:54:57.655Z,987.22
2018-12-16T09:55:57.570Z,987.19
2018-12-16T09:56:57.559Z,987.19
2018-12-16T09:57:57.549Z,987.2
2018-12-16T09:58:57.541Z,987.22
2018-12-16T09:59:57.532Z,987.19
2018-12-16T10:00:57.524Z,987.2
2018-12-16T10:01:57.511Z,987.21
2018-12-16T10:02:57.510Z,987.21
2018-12-16T10:03:57.494Z,987.22
2018-12-16T10:04:57.483Z,987.23
2018-12-16T10:05:57.474Z,987.24
2018-12-16T10:06:57.472Z,987.23
2018-12-16T10:07:57.454Z,987.22
2018-12-16T10:08:57.445Z,987.22
2018-12-16T10:09:57.436Z,987.21
2018-12-16T10:10:57.427Z,987.22
2018-12-16T10:11:57.418Z,987.23
2018-12-16T10:12:57.417Z,987.27
2018-12-16T10:13:57.398Z,987.28
2018-12-16T10:14:57.388Z,987.34
2018-12-16T10:15:57.385Z,987.32
2018-12-16T10:16:57.380Z,987.36
2018-12-16T10:17:57.362Z,987.39
2018-12-16T10:18:57.353Z,987.38
2018-12-16T10:19:57.344Z,987.38
2018-12-16T10:20:57.337Z,987.31
2018-12-16T10:21:57.333Z,987.32
2018-12-16T10:22:57.319Z,987.32
2018-12-16T10:23:57.312Z,987.28
2018-12-16T10:24:57.314Z,987.29
2018-12-16T10:25:57.290Z,987.31
2018-12-16T10:26:57.287Z,987.33
2018-12-16T10:27:57.274Z,987.28
2018-12-16T10:28:57.263Z,987.27
2018-12-16T10:29:57.302Z,987.28
2018-12-16T10:30:57.247Z,987.27
2018-12-16T10:31:57.236Z,987.23
2018-12-16T10:32:57.225Z,987.28
2018-12-16T10:33:57.216Z,987.26
2018-12-16T10:34:57.210Z,987.28
2018-12-16T10:35:57.197Z,987.28
2018-12-16T10:36:57.188Z,987.28
2018-12-16T10:37:57.179Z,987.33
2018-12-16T10:38:57.175Z,987.38
2018-12-16T10:39:57.215Z,987.34
2018-12-16T10:40:57.155Z,987.32
2018-12-16T10:41:57.144Z,987.29
2018-12-16T10:42:57.135Z,987.29
2018-12-16T10:43:57.125Z,987.32
2018-12-16T10:44:57.118Z,987.33
2018-12-16T10:45:57.121Z,987.29
2018-12-16T10:46:57.114Z,987.3
2018-12-16T10:47:57.086Z,987.33
2018-12-16T10:48:57.096Z,987.34
2018-12-16T10:49:57.074Z,987.4
2018-12-16T10:50:57.059Z,987.37
2018-12-16T10:51:57.051Z,987.39
2018-12-16T10:52:57.046Z,987.41
2018-12-16T10:53:57.033Z,987.36
2018-12-16T10:54:59.527Z,987.33
2018-12-16T10:55:57.061Z,987.34
2018-12-16T10:56:57.021Z,987.37
2018-12-16T10:57:57.002Z,987.4
2018-12-16T10:58:56.988Z,987.42
2018-12-16T10:59:57.082Z,987.44
2018-12-16T11:00:57.088Z,987.42
2018-12-16T11:01:57.072Z,987.41
2018-12-16T11:02:56.954Z,987.43
2018-12-16T11:03:57.020Z,987.4
2018-12-16T11:04:57.318Z,987.41
2018-12-16T11:05:56.927Z,987.46
2018-12-16T11:06:56.920Z,987.48
2018-12-16T11:07:56.916Z,987.43
2018-12-16T11:08:56.903Z,987.45
2018-12-16T11:09:56.898Z,987.38
2018-12-16T11:10:56.885Z,987.4
2018-12-16T11:11:56.878Z,987.42
2018-12-16T11:12:56.867Z,987.4
2018-12-16T11:13:56.858Z,987.4
2018-12-16T11:14:56.861Z,987.42
2018-12-16T11:15:56.840Z,987.43
2018-12-16T11:16:56.833Z,987.37
2018-12-16T11:17:56.826Z,987.31
2018-12-16T11:18:56.816Z,987.32
2018-12-16T11:19:56.804Z,987.27
2018-12-16T11:20:56.797Z,987.29
2018-12-16T11:21:56.788Z,987.33
2018-12-16T11:22:56.776Z,987.33
2018-12-16T11:23:56.776Z,987.35
2018-12-16T11:24:56.847Z,987.29
2018-12-16T11:25:56.749Z,987.27
2018-12-16T11:26:56.739Z,987.24
2018-12-16T11:27:56.732Z,987.24
2018-12-16T11:28:56.725Z,987.23
2018-12-16T11:29:56.728Z,987.21
2018-12-16T11:30:56.703Z,987.16
2018-12-16T11:31:56.693Z,987.1
2018-12-16T11:32:56.686Z,987.11
2018-12-16T11:33:56.695Z,987.05
2018-12-16T11:34:56.666Z,987.04
2018-12-16T11:35:56.657Z,987.02
2018-12-16T11:36:56.647Z,986.96
2018-12-16T11:37:56.643Z,986.95
2018-12-16T11:38:56.633Z,986.96
2018-12-16T11:39:56.620Z,986.96
2018-12-16T11:40:56.664Z,987.01
2018-12-16T11:41:56.604Z,987
2018-12-16T11:42:56.597Z,986.98
2018-12-16T11:43:56.591Z,987.02
2018-12-16T11:44:56.576Z,987.01
2018-12-16T11:45:56.712Z,987.04
2018-12-16T11:46:56.559Z,987.04
2018-12-16T11:47:56.549Z,987.05
2018-12-16T11:48:56.543Z,987.03
2018-12-16T11:49:56.540Z,987.03
2018-12-16T11:50:56.518Z,987.05
2018-12-16T11:51:56.514Z,987.06
2018-12-16T11:52:56.501Z,987.06
2018-12-16T11:53:56.524Z,987.06
2018-12-16T11:54:56.482Z,987.06
2018-12-16T11:55:59.779Z,987.03
2018-12-16T11:56:56.466Z,987.03
2018-12-16T11:57:56.463Z,987.04
2018-12-16T11:58:56.450Z,986.99
2018-12-16T11:59:56.448Z,986.97
2018-12-16T12:00:56.428Z,986.99
2018-12-16T12:01:56.428Z,986.97
2018-12-16T12:02:56.410Z,986.95
2018-12-16T12:03:56.408Z,986.95
2018-12-16T12:04:56.391Z,986.96
2018-12-16T12:05:56.397Z,986.96
2018-12-16T12:06:56.378Z,986.97
2018-12-16T12:07:56.363Z,986.95
2018-12-16T12:08:56.356Z,986.99
2018-12-16T12:09:56.346Z,987.01
2018-12-16T12:10:56.335Z,987.01
2018-12-16T12:11:56.574Z,987.04
2018-12-16T12:12:56.322Z,987
2018-12-16T12:13:56.313Z,987
2018-12-16T12:14:56.302Z,987
2018-12-16T12:15:56.299Z,987
2018-12-16T12:16:56.285Z,987.03
2018-12-16T12:17:56.281Z,987.06
2018-12-16T12:18:56.272Z,987.01
2018-12-16T12:19:56.285Z,987.01
2018-12-16T12:20:56.254Z,987.05
2018-12-16T12:21:56.246Z,987.08
2018-12-16T12:22:56.238Z,987.05
2018-12-16T12:23:56.228Z,987.04
2018-12-16T12:24:56.217Z,987.05
2018-12-16T12:25:56.210Z,987.1
2018-12-16T12:26:56.201Z,987.1
2018-12-16T12:27:56.195Z,987.07
2018-12-16T12:28:56.184Z,987.03
2018-12-16T12:29:56.175Z,987.06
2018-12-16T12:30:56.167Z,987.04
2018-12-16T12:31:56.172Z,987.08
2018-12-16T12:32:56.162Z,987.02